Time;durP1;ratioP1;P1;durP2;ratioP2;P2;SDS_P1;SDS_P2;PMS_P1;PMS_P2;Temp;Humidity;BMP_temperature;BMP_pressure;BME280_temperature;BME280_humidity;BME280_pressure;Samples;Min_cycle;Max_cycle;Signal;HPM_P1;HPM_P2
2023/10/17 00:01:34;;;;;;;;;;;8.10;69.40;;;;;;5187477;22;20130;-85
2023/10/17 00:06:06;;;;;;;;;;;7.90;69.30;;;;;;5188230;22;19927;-84
2023/10/17 00:08:28;;;;;;;;;;;7.90;69.40;;;;;;5185727;22;19913;-84
2023/10/17 00:10:49;;;;;;;;;;;7.90;69.30;;;;;;5185596;22;20005;-85
2023/10/17 00:15:39;;;;;;;;;;;7.70;69.30;;;;;;5186745;22;19949;-85
2023/10/17 00:18:11;;;;;;;;;;;7.70;69.30;;;;;;5187628;22;19919;-84
2023/10/17 00:20:39;;;;;;;;;;;7.60;69.20;;;;;;5188029;22;19911;-84
2023/10/17 00:22:59;;;;;;;;;;;7.60;69.10;;;;;;5189129;22;19908;-83
2023/10/17 00:25:20;;;;;;;;;;;7.50;69.10;;;;;;5186177;22;19911;-84
2023/10/17 00:27:40;;;;;;;;;;;7.40;69.00;;;;;;5208400;22;19919;-85
2023/10/17 00:30:01;;;;;;;;;;;7.50;69.10;;;;;;5195379;22;19918;-84
2023/10/17 00:32:02;;;;;;;;;;;7.40;69.20;;;;;;5189406;22;20302;-84
2023/10/17 00:34:13;;;;;;;;;;;7.30;69.20;;;;;;5191177;22;20331;-84
2023/10/17 00:36:14;;;;;;;;;;;7.20;69.20;;;;;;5189109;22;19914;-84
2023/10/17 00:38:15;;;;;;;;;;;7.20;69.20;;;;;;5161808;22;19982;-84
2023/10/17 00:40:34;;;;;;;;;;;7.20;69.30;;;;;;5162639;23;19912;-85
2023/10/17 00:42:56;;;;;;;;;;;7.10;69.30;;;;;;5167086;22;19942;-84
2023/10/17 00:45:17;;;;;;;;;;;7.10;69.40;;;;;;5167668;22;19907;-84
2023/10/17 00:47:38;;;;;;;;;;;7.00;69.40;;;;;;5188842;22;19914;-84
2023/10/17 00:50:05;;;;;;;;;;;7.00;69.30;;;;;;5164680;22;19935;-83
2023/10/17 00:52:15;;;;;;;;;;;6.90;69.20;;;;;;5188501;22;19914;-84
2023/10/17 00:54:18;;;;;;;;;;;6.90;69.40;;;;;;5189474;22;19957;-84
2023/10/17 00:56:20;;;;;;;;;;;6.90;69.40;;;;;;5191714;22;19990;-84
2023/10/17 00:58:24;;;;;;;;;;;6.80;69.40;;;;;;5189550;22;19911;-84
2023/10/17 01:00:37;;;;;;;;;;;6.90;69.60;;;;;;5161206;22;19922;-84
2023/10/17 01:02:46;;;;;;;;;;;6.70;69.50;;;;;;5189794;22;19907;-84
2023/10/17 01:04:47;;;;;;;;;;;6.70;69.60;;;;;;5188212;22;19918;-84
2023/10/17 01:06:54;;;;;;;;;;;6.80;70.10;;;;;;5188027;22;19907;-84
2023/10/17 01:08:56;;;;;;;;;;;6.60;69.90;;;;;;5189127;22;19914;-84
2023/10/17 01:10:56;;;;;;;;;;;6.60;69.80;;;;;;5188456;22;19914;-84
2023/10/17 01:13:02;;;;;;;;;;;6.60;70.00;;;;;;5190108;22;19908;-84
2023/10/17 01:15:03;;;;;;;;;;;6.70;70.10;;;;;;5187416;22;19933;-84
2023/10/17 01:17:07;;;;;;;;;;;6.60;70.10;;;;;;5163383;23;19915;-84
2023/10/17 01:19:11;;;;;;;;;;;6.60;70.30;;;;;;5189653;22;19918;-84
2023/10/17 01:21:12;;;;;;;;;;;6.50;70.20;;;;;;5190415;22;19964;-84
2023/10/17 01:23:14;;;;;;;;;;;6.50;70.30;;;;;;5161270;23;20458;-84
2023/10/17 01:25:24;;;;;;;;;;;6.60;70.40;;;;;;5160401;22;19911;-84
2023/10/17 01:27:26;;;;;;;;;;;6.50;70.50;;;;;;5164789;22;19990;-84
2023/10/17 01:29:27;;;;;;;;;;;6.40;70.40;;;;;;5162884;23;20290;-84
2023/10/17 01:31:31;;;;;;;;;;;6.40;70.50;;;;;;5189817;22;20307;-84
2023/10/17 01:33:31;;;;;;;;;;;6.50;70.70;;;;;;5189902;22;19907;-84
2023/10/17 01:35:33;;;;;;;;;;;6.50;70.70;;;;;;5189928;22;19910;-83
2023/10/17 01:37:55;;;;;;;;;;;6.30;70.50;;;;;;5191132;22;19907;-84
2023/10/17 01:40:28;;;;;;;;;;;6.50;70.70;;;;;;5187177;22;19976;-83
2023/10/17 01:42:52;;;;;;;;;;;6.40;70.60;;;;;;5190780;22;19907;-84
2023/10/17 01:45:14;;;;;;;;;;;6.30;70.60;;;;;;5191431;22;19918;-84
2023/10/17 01:47:36;;;;;;;;;;;6.30;70.70;;;;;;5192837;22;19911;-84
2023/10/17 01:49:57;;;;;;;;;;;6.30;70.90;;;;;;5191382;22;19934;-84
2023/10/17 01:52:18;;;;;;;;;;;6.40;71.00;;;;;;5166925;22;19904;-84
2023/10/17 01:54:21;;;;;;;;;;;6.30;70.90;;;;;;5189970;22;19964;-84
2023/10/17 01:56:27;;;;;;;;;;;6.30;70.90;;;;;;5191393;22;19931;-85
2023/10/17 01:58:29;;;;;;;;;;;6.30;71.10;;;;;;5186833;22;19911;-84
2023/10/17 02:00:39;;;;;;;;;;;6.30;71.00;;;;;;5190021;22;19917;-83
2023/10/17 02:02:42;;;;;;;;;;;6.20;70.90;;;;;;5190252;22;19916;-85
2023/10/17 02:04:44;;;;;;;;;;;6.30;71.00;;;;;;5188187;22;19959;-84
2023/10/17 02:06:47;;;;;;;;;;;6.20;71.80;;;;;;5164762;22;19904;-84
2023/10/17 02:08:48;;;;;;;;;;;6.30;71.30;;;;;;5163371;23;19914;-84
2023/10/17 02:10:48;;;;;;;;;;;6.30;71.30;;;;;;5190404;22;19915;-85
2023/10/17 02:12:49;;;;;;;;;;;6.30;71.30;;;;;;5164463;23;20351;-84
2023/10/17 02:14:50;;;;;;;;;;;6.20;71.50;;;;;;5187289;22;20263;-83
2023/10/17 02:16:50;;;;;;;;;;;6.10;72.00;;;;;;5188078;22;20306;-84
2023/10/17 02:18:51;;;;;;;;;;;6.20;71.90;;;;;;5191891;22;19910;-84
2023/10/17 02:20:52;;;;;;;;;;;6.10;71.70;;;;;;5190991;22;20327;-83
2023/10/17 02:22:52;;;;;;;;;;;6.10;71.70;;;;;;5190247;22;19934;-84
2023/10/17 02:24:57;;;;;;;;;;;6.20;71.70;;;;;;5192494;22;19907;-84
2023/10/17 02:27:08;;;;;;;;;;;6.00;71.60;;;;;;5160578;23;19930;-82
2023/10/17 02:29:11;;;;;;;;;;;6.00;71.60;;;;;;5163021;23;19908;-84
2023/10/17 02:31:13;;;;;;;;;;;6.00;71.60;;;;;;5163777;23;19919;-84
2023/10/17 02:33:17;;;;;;;;;;;6.00;71.70;;;;;;5137033;23;19907;-83
2023/10/17 02:35:41;;;;;;;;;;;6.10;71.70;;;;;;5189976;22;19974;-84
2023/10/17 02:38:03;;;;;;;;;;;6.00;71.60;;;;;;5190220;22;19918;-84
2023/10/17 02:40:24;;;;;;;;;;;5.90;71.60;;;;;;5188004;22;19993;-84
2023/10/17 02:42:44;;;;;;;;;;;5.90;71.50;;;;;;5191520;22;19911;-83
2023/10/17 02:45:07;;;;;;;;;;;5.90;71.50;;;;;;5190317;22;19923;-83
2023/10/17 02:47:28;;;;;;;;;;;5.80;71.50;;;;;;5196969;22;19918;-83
2023/10/17 02:49:49;;;;;;;;;;;5.80;71.60;;;;;;5190440;22;19911;-84
2023/10/17 02:51:50;;;;;;;;;;;5.80;71.60;;;;;;5163306;23;20421;-84
2023/10/17 02:53:56;;;;;;;;;;;5.80;71.60;;;;;;5192550;22;19916;-84
2023/10/17 02:55:57;;;;;;;;;;;5.80;71.60;;;;;;5162817;23;19970;-83
2023/10/17 02:57:57;;;;;;;;;;;5.90;71.60;;;;;;5189082;22;19907;-84
2023/10/17 03:00:19;;;;;;;;;;;5.60;71.40;;;;;;5163686;23;19908;-84
2023/10/17 03:02:24;;;;;;;;;;;5.70;71.50;;;;;;5163146;23;20034;-84
2023/10/17 03:04:25;;;;;;;;;;;5.80;71.60;;;;;;5162766;22;19908;-84
2023/10/17 03:06:25;;;;;;;;;;;5.70;71.60;;;;;;5189936;22;20355;-84
2023/10/17 03:08:27;;;;;;;;;;;5.80;71.70;;;;;;5188649;22;20297;-84
2023/10/17 03:10:39;;;;;;;;;;;5.80;71.70;;;;;;5165397;23;19903;-83
2023/10/17 03:12:53;;;;;;;;;;;5.60;71.60;;;;;;5165272;23;19990;-83
2023/10/17 03:17:00;;;;;;;;;;;5.60;71.70;;;;;;5190218;22;20237;-83
2023/10/17 03:19:04;;;;;;;;;;;5.60;71.80;;;;;;5163650;23;19911;-84
2023/10/17 03:21:18;;;;;;;;;;;5.60;71.80;;;;;;5164569;22;20001;-83
2023/10/17 03:23:46;;;;;;;;;;;5.60;71.90;;;;;;5191209;22;19913;-84
2023/10/17 03:26:07;;;;;;;;;;;5.60;72.00;;;;;;5189006;22;19934;-84
2023/10/17 03:28:13;;;;;;;;;;;5.60;72.10;;;;;;5188449;22;19979;-84
2023/10/17 03:30:33;;;;;;;;;;;5.60;72.10;;;;;;5191160;22;19913;-84
2023/10/17 03:35:21;;;;;;;;;;;5.80;72.80;;;;;;5192042;22;19926;-83
2023/10/17 03:37:42;;;;;;;;;;;5.70;73.40;;;;;;5190357;22;19942;-85
2023/10/17 03:40:19;;;;;;;;;;;5.80;74.00;;;;;;5188758;22;19907;-84
2023/10/17 03:45:02;;;;;;;;;;;5.90;74.20;;;;;;5192403;22;19914;-83
2023/10/17 03:47:23;;;;;;;;;;;6.00;74.10;;;;;;5189911;22;19908;-83
2023/10/17 03:49:47;;;;;;;;;;;5.80;73.90;;;;;;5190429;22;19931;-84
2023/10/17 03:52:08;;;;;;;;;;;6.00;74.00;;;;;;5193200;22;19907;-83
2023/10/17 03:54:29;;;;;;;;;;;5.90;74.10;;;;;;5191133;22;19969;-83
2023/10/17 03:56:56;;;;;;;;;;;6.00;74.00;;;;;;5191095;22;20119;-83
2023/10/17 03:59:21;;;;;;;;;;;6.00;73.90;;;;;;5190887;22;20382;-84
2023/10/17 04:01:48;;;;;;;;;;;6.20;74.10;;;;;;5169236;22;19914;-84
2023/10/17 04:04:09;;;;;;;;;;;6.10;74.40;;;;;;5191812;22;19960;-84
2023/10/17 04:06:42;;;;;;;;;;;6.20;74.20;;;;;;5167119;22;19942;-84
2023/10/17 04:09:17;;;;;;;;;;;6.20;74.10;;;;;;5190254;22;19903;-83
2023/10/17 04:11:37;;;;;;;;;;;6.20;74.20;;;;;;5189589;22;19950;-83
2023/10/17 04:13:52;;;;;;;;;;;6.40;74.50;;;;;;5166184;22;20399;-84
2023/10/17 04:15:56;;;;;;;;;;;6.30;74.30;;;;;;5161162;22;20391;-84
2023/10/17 04:18:01;;;;;;;;;;;6.40;74.60;;;;;;5188543;22;19911;-84
2023/10/17 04:20:11;;;;;;;;;;;6.40;74.50;;;;;;5187288;22;20529;-84
2023/10/17 04:22:15;;;;;;;;;;;6.40;74.60;;;;;;5161929;23;19914;-84
2023/10/17 04:24:29;;;;;;;;;;;6.40;74.80;;;;;;5187334;22;19907;-83
2023/10/17 04:26:34;;;;;;;;;;;6.50;75.00;;;;;;5186563;22;20316;-83
2023/10/17 04:28:41;;;;;;;;;;;6.40;75.30;;;;;;5163687;22;19914;-84
2023/10/17 04:30:47;;;;;;;;;;;6.50;75.40;;;;;;5162755;23;19918;-84
2023/10/17 04:32:50;;;;;;;;;;;6.60;75.20;;;;;;5190800;22;19908;-84
2023/10/17 04:35:10;;;;;;;;;;;6.50;75.20;;;;;;5186216;22;19911;-85
2023/10/17 04:37:37;;;;;;;;;;;6.60;75.40;;;;;;5190053;22;20270;-83
2023/10/17 04:40:27;;;;;;;;;;;6.60;75.40;;;;;;5191689;22;19907;-84
2023/10/17 04:43:03;;;;;;;;;;;6.60;75.40;;;;;;5189553;22;19961;-83
2023/10/17 04:45:28;;;;;;;;;;;6.70;75.50;;;;;;5190500;22;20323;-84
2023/10/17 04:48:10;;;;;;;;;;;6.70;75.40;;;;;;5168296;22;20446;-84
2023/10/17 04:50:40;;;;;;;;;;;6.70;75.80;;;;;;5189449;22;19914;-83
2023/10/17 04:53:01;;;;;;;;;;;6.80;75.70;;;;;;5189639;22;19907;-84
2023/10/17 04:55:09;;;;;;;;;;;6.90;75.90;;;;;;5189950;22;19911;-83
2023/10/17 04:57:15;;;;;;;;;;;6.80;75.80;;;;;;5164263;23;19912;-83
2023/10/17 04:59:28;;;;;;;;;;;6.80;76.30;;;;;;5183940;22;20152;-85
2023/10/17 05:01:46;;;;;;;;;;;6.90;76.10;;;;;;5186744;22;19896;-83
2023/10/17 05:07:07;;;;;;;;;;;7.00;76.00;;;;;;5196126;22;20191;-83
2023/10/17 06:18:32;;;;;;;;;;;7.40;76.20;;;;;;5165170;22;19918;-84
2023/10/17 06:31:34;;;;;;;;;;;7.50;76.10;;;;;;5189483;22;19935;-84
2023/10/17 06:34:38;;;;;;;;;;;7.40;76.10;;;;;;5194818;22;20545;-83
2023/10/17 06:36:59;;;;;;;;;;;7.40;76.00;;;;;;5190305;22;19907;-84
2023/10/17 06:39:23;;;;;;;;;;;7.50;75.90;;;;;;5189967;22;19930;-84
2023/10/17 06:41:45;;;;;;;;;;;7.50;76.40;;;;;;5189706;22;19964;-84
2023/10/17 06:43:58;;;;;;;;;;;7.50;76.10;;;;;;5192510;22;19907;-84
2023/10/17 06:46:28;;;;;;;;;;;7.60;76.20;;;;;;5194051;22;19934;-84
2023/10/17 06:48:49;;;;;;;;;;;7.50;76.50;;;;;;5193486;22;19914;-84
2023/10/17 06:53:39;;;;;;;;;;;7.70;76.40;;;;;;5190570;22;19907;-85
2023/10/17 06:56:05;;;;;;;;;;;7.50;76.10;;;;;;5190890;22;19908;-84
2023/10/17 06:58:27;;;;;;;;;;;7.60;76.20;;;;;;5191318;22;19907;-85
2023/10/17 07:00:51;;;;;;;;;;;7.70;76.20;;;;;;5191758;22;19961;-83
2023/10/17 07:03:15;;;;;;;;;;;7.70;76.00;;;;;;5190659;22;19903;-84
2023/10/17 07:05:22;;;;;;;;;;;7.70;76.20;;;;;;5190379;22;19926;-83
2023/10/17 07:07:23;;;;;;;;;;;7.80;76.30;;;;;;5166735;23;20254;-84
2023/10/17 07:09:25;;;;;;;;;;;7.90;76.40;;;;;;5192980;22;19908;-84
2023/10/17 07:11:26;;;;;;;;;;;7.80;76.20;;;;;;5191342;22;20467;-83
2023/10/17 07:13:49;;;;;;;;;;;7.90;76.30;;;;;;5165388;23;19915;-84
2023/10/17 07:15:55;;;;;;;;;;;7.90;76.00;;;;;;5192117;22;19911;-83
2023/10/17 07:18:43;;;;;;;;;;;7.90;76.20;;;;;;5182327;22;19963;-83
2023/10/17 07:21:09;;;;;;;;;;;7.90;76.00;;;;;;5198116;22;19907;-84
2023/10/17 07:22:37;;;;;;;;;;;7.90;76.40;;;;;;5192594;22;19968;-84
2023/10/17 07:24:43;;;;;;;;;;;8.00;76.30;;;;;;5194120;22;19907;-84
2023/10/17 07:26:46;;;;;;;;;;;8.00;76.80;;;;;;5163410;23;20616;-83
2023/10/17 07:29:12;;;;;;;;;;;8.00;76.90;;;;;;5170697;22;19994;-83
2023/10/17 07:31:33;;;;;;;;;;;8.10;76.90;;;;;;5167585;22;19912;-84
2023/10/17 07:33:34;;;;;;;;;;;8.00;77.10;;;;;;5189074;22;19935;-84
2023/10/17 07:35:57;;;;;;;;;;;8.00;77.10;;;;;;5192269;22;19907;-84
2023/10/17 07:38:09;;;;;;;;;;;8.20;76.90;;;;;;5192651;22;20270;-83
2023/10/17 07:43:14;;;;;;;;;;;8.10;76.30;;;;;;5191586;22;19953;-83
2023/10/17 07:45:41;;;;;;;;;;;8.10;76.50;;;;;;5192633;22;19907;-83
2023/10/17 07:48:02;;;;;;;;;;;8.20;76.60;;;;;;5170529;22;19907;-83
2023/10/17 07:50:26;;;;;;;;;;;8.20;76.60;;;;;;5193029;22;19953;-83
2023/10/17 07:52:59;;;;;;;;;;;8.30;76.60;;;;;;5192894;22;19911;-83
2023/10/17 07:55:34;;;;;;;;;;;8.30;76.50;;;;;;5190437;22;19915;-83
2023/10/17 07:57:41;;;;;;;;;;;8.50;76.80;;;;;;5193702;22;19907;-84
2023/10/17 07:59:45;;;;;;;;;;;8.40;76.80;;;;;;5162237;23;19950;-84
2023/10/17 08:01:49;;;;;;;;;;;8.50;77.10;;;;;;5164378;23;19903;-83
2023/10/17 08:06:22;;;;;;;;;;;8.70;77.20;;;;;;5191714;22;19919;-84
2023/10/17 08:08:43;;;;;;;;;;;8.70;76.90;;;;;;5169963;22;19907;-83
2023/10/17 08:11:05;;;;;;;;;;;8.70;76.80;;;;;;5191056;22;19907;-84
2023/10/17 08:13:28;;;;;;;;;;;8.80;76.70;;;;;;5194357;22;19907;-84
2023/10/17 08:15:52;;;;;;;;;;;9.00;76.60;;;;;;5195087;22;19911;-84
2023/10/17 08:18:16;;;;;;;;;;;9.00;76.30;;;;;;5195522;22;19908;-84
2023/10/17 08:21:07;;;;;;;;;;;9.00;76.30;;;;;;5194074;22;19907;-84
2023/10/17 08:23:34;;;;;;;;;;;9.10;76.80;;;;;;5193824;22;19956;-83
2023/10/17 08:26:00;;;;;;;;;;;9.20;77.00;;;;;;5190872;22;20334;-84
2023/10/17 08:28:31;;;;;;;;;;;9.30;76.90;;;;;;5193171;22;19907;-84
2023/10/17 08:30:38;;;;;;;;;;;9.50;76.80;;;;;;5193320;22;19953;-84
2023/10/17 08:32:39;;;;;;;;;;;9.50;76.60;;;;;;5189720;22;19933;-85
2023/10/17 08:34:43;;;;;;;;;;;9.60;76.40;;;;;;5139291;23;20004;-84
2023/10/17 08:38:47;;;;;;;;;;;9.60;76.10;;;;;;5166786;23;19978;-84
2023/10/17 08:40:49;;;;;;;;;;;9.80;76.00;;;;;;5192165;22;19907;-84
2023/10/17 08:42:50;;;;;;;;;;;9.80;76.00;;;;;;5165669;23;19949;-86
2023/10/17 08:44:51;;;;;;;;;;;9.90;76.10;;;;;;5165030;22;19907;-83
2023/10/17 08:46:54;;;;;;;;;;;9.90;75.90;;;;;;5192446;22;19910;-83
2023/10/17 08:49:21;;;;;;;;;;;10.00;75.80;;;;;;5193711;22;20352;-84
2023/10/17 08:51:42;;;;;;;;;;;10.10;75.70;;;;;;5190820;22;19957;-83
2023/10/17 08:54:05;;;;;;;;;;;10.10;75.60;;;;;;5192579;22;19915;-85
2023/10/17 08:56:27;;;;;;;;;;;10.20;75.40;;;;;;5196137;22;19934;-84
2023/10/17 08:58:48;;;;;;;;;;;10.20;75.30;;;;;;5195160;22;20009;-84
2023/10/17 09:01:14;;;;;;;;;;;10.30;75.10;;;;;;5193034;22;19903;-84
2023/10/17 09:03:35;;;;;;;;;;;10.40;75.00;;;;;;5191021;22;19911;-84
2023/10/17 09:05:58;;;;;;;;;;;10.40;74.80;;;;;;5192163;22;20010;-84
2023/10/17 09:08:02;;;;;;;;;;;10.40;74.60;;;;;;5194145;22;19960;-84
2023/10/17 09:10:15;;;;;;;;;;;10.50;74.50;;;;;;5165431;22;20279;-84
2023/10/17 09:13:15;;;;;;;;;;;10.50;74.40;;;;;;5166732;22;19957;-84
2023/10/17 09:15:27;;;;;;;;;;;10.60;74.30;;;;;;5196547;22;20350;-83
2023/10/17 09:18:07;;;;;;;;;;;10.60;74.30;;;;;;5196185;22;19986;-83
2023/10/17 09:20:39;;;;;;;;;;;10.70;74.20;;;;;;5174743;22;19960;-84
2023/10/17 09:23:00;;;;;;;;;;;10.80;74.20;;;;;;5194527;22;20100;-83
2023/10/17 09:25:22;;;;;;;;;;;10.80;74.10;;;;;;5173701;22;19907;-83
2023/10/17 09:27:44;;;;;;;;;;;10.90;74.00;;;;;;5197048;22;19907;-84
2023/10/17 09:30:10;;;;;;;;;;;11.10;74.10;;;;;;5196960;22;19914;-84
2023/10/17 09:32:34;;;;;;;;;;;11.10;74.00;;;;;;5195279;22;19946;-83
2023/10/17 09:34:36;;;;;;;;;;;11.10;73.70;;;;;;5193418;22;19907;-82
2023/10/17 09:36:42;;;;;;;;;;;11.20;73.70;;;;;;5166508;22;20410;-84
2023/10/17 09:38:47;;;;;;;;;;;11.30;73.70;;;;;;5167926;23;19927;-84
2023/10/17 09:41:08;;;;;;;;;;;11.30;73.70;;;;;;5198948;22;19911;-83
2023/10/17 09:43:32;;;;;;;;;;;11.30;73.60;;;;;;5211456;22;19922;-81
2023/10/17 09:45:55;;;;;;;;;;;11.40;73.30;;;;;;5195494;22;19953;-83
2023/10/17 09:48:17;;;;;;;;;;;11.40;73.00;;;;;;5169868;22;19911;-84
2023/10/17 09:50:39;;;;;;;;;;;11.50;73.00;;;;;;5189615;22;19908;-84
2023/10/17 09:53:04;;;;;;;;;;;11.60;72.80;;;;;;5189071;22;19911;-83
2023/10/17 09:55:25;;;;;;;;;;;11.60;72.50;;;;;;5187507;22;19974;-84
2023/10/17 09:58:08;;;;;;;;;;;11.70;72.50;;;;;;5183540;22;19947;-83
2023/10/17 10:00:36;;;;;;;;;;;11.70;72.50;;;;;;5188989;22;19907;-82
2023/10/17 10:02:43;;;;;;;;;;;11.70;72.30;;;;;;5191112;22;19914;-82
2023/10/17 10:04:44;;;;;;;;;;;11.70;72.40;;;;;;5164474;22;19919;-82
2023/10/17 10:06:45;;;;;;;;;;;11.80;72.40;;;;;;5166908;22;19903;-83
2023/10/17 10:08:46;;;;;;;;;;;11.80;72.40;;;;;;5166353;22;20353;-84
2023/10/17 10:10:48;;;;;;;;;;;11.90;72.30;;;;;;5188071;22;20255;-83
2023/10/17 10:12:59;;;;;;;;;;;12.00;72.10;;;;;;5191141;22;19930;-83
2023/10/17 10:14:59;;;;;;;;;;;11.90;72.10;;;;;;5190345;22;19979;-85
2023/10/17 10:17:28;;;;;;;;;;;11.90;72.00;;;;;;5166877;22;19922;-83
2023/10/17 10:19:51;;;;;;;;;;;12.00;72.00;;;;;;5171613;22;19904;-84
2023/10/17 10:21:58;;;;;;;;;;;11.90;71.90;;;;;;5193948;22;19903;-84
2023/10/17 10:24:18;;;;;;;;;;;11.90;71.60;;;;;;5194900;22;19917;-83
2023/10/17 10:26:39;;;;;;;;;;;11.90;71.60;;;;;;5192403;22;19934;-82
2023/10/17 10:29:19;;;;;;;;;;;11.90;71.30;;;;;;5170623;22;19904;-82
2023/10/17 10:31:42;;;;;;;;;;;11.90;71.10;;;;;;5191414;22;19908;-83
2023/10/17 10:34:03;;;;;;;;;;;11.90;71.10;;;;;;5169336;22;19982;-83
2023/10/17 10:36:27;;;;;;;;;;;11.90;71.10;;;;;;5172249;22;19908;-84
2023/10/17 10:38:30;;;;;;;;;;;12.00;71.30;;;;;;5193839;22;20391;-83
2023/10/17 10:40:36;;;;;;;;;;;11.90;71.30;;;;;;5195166;22;19914;-84
2023/10/17 10:42:50;;;;;;;;;;;11.90;71.40;;;;;;5165733;23;19904;-83
2023/10/17 10:44:51;;;;;;;;;;;11.80;71.40;;;;;;5195281;22;19911;-83
2023/10/17 10:46:55;;;;;;;;;;;11.80;71.70;;;;;;5194220;22;19907;-84
2023/10/17 10:49:15;;;;;;;;;;;11.90;71.90;;;;;;5172126;22;19908;-83
2023/10/17 10:51:36;;;;;;;;;;;11.90;71.90;;;;;;5193608;22;20022;-84
2023/10/17 10:53:57;;;;;;;;;;;11.90;72.10;;;;;;5191272;22;19950;-83
2023/10/17 10:56:20;;;;;;;;;;;12.00;73.10;;;;;;5172341;22;19908;-83
2023/10/17 10:58:57;;;;;;;;;;;12.00;72.50;;;;;;5171208;22;19903;-83
2023/10/17 11:01:23;;;;;;;;;;;11.90;72.60;;;;;;5170342;22;20386;-84
2023/10/17 11:03:46;;;;;;;;;;;12.10;72.80;;;;;;5193216;22;19986;-84
2023/10/17 11:06:10;;;;;;;;;;;12.10;72.80;;;;;;5190391;22;19915;-83
2023/10/17 11:08:38;;;;;;;;;;;12.20;73.30;;;;;;5171163;22;19908;-83
2023/10/17 11:11:02;;;;;;;;;;;12.10;73.30;;;;;;5188361;22;19933;-83
2023/10/17 11:13:06;;;;;;;;;;;12.20;73.30;;;;;;5189716;22;19938;-84
2023/10/17 11:15:27;;;;;;;;;;;12.20;73.20;;;;;;5163643;22;19934;-84
2023/10/17 11:17:28;;;;;;;;;;;12.20;73.20;;;;;;5165942;23;19922;-83
2023/10/17 11:19:29;;;;;;;;;;;12.20;73.10;;;;;;5166031;23;19911;-84
2023/10/17 11:21:31;;;;;;;;;;;12.30;73.30;;;;;;5165400;23;19903;-83
2023/10/17 11:23:33;;;;;;;;;;;12.30;73.20;;;;;;5194538;22;19913;-83
2023/10/17 11:25:34;;;;;;;;;;;12.30;73.00;;;;;;5198609;22;19927;-83
2023/10/17 11:27:35;;;;;;;;;;;12.20;72.80;;;;;;5173432;23;19908;-84
2023/10/17 11:29:36;;;;;;;;;;;12.20;72.60;;;;;;5173390;22;19907;-84
2023/10/17 11:31:41;;;;;;;;;;;12.30;72.60;;;;;;5146517;23;19908;-85
2023/10/17 11:34:12;;;;;;;;;;;12.40;72.60;;;;;;5196409;22;19907;-84
2023/10/17 11:36:45;;;;;;;;;;;12.40;72.60;;;;;;5196946;22;20442;-84
2023/10/17 11:39:09;;;;;;;;;;;12.30;72.60;;;;;;5192969;22;19911;-83
2023/10/17 11:41:31;;;;;;;;;;;12.40;72.70;;;;;;5190550;22;20303;-83
2023/10/17 11:43:53;;;;;;;;;;;12.50;72.80;;;;;;5169793;22;19904;-84
2023/10/17 11:46:26;;;;;;;;;;;12.50;72.70;;;;;;5192746;22;19903;-84
2023/10/17 11:48:36;;;;;;;;;;;12.50;72.60;;;;;;5192354;22;19922;-83
2023/10/17 11:50:38;;;;;;;;;;;12.50;72.50;;;;;;5189392;22;19914;-84
2023/10/17 11:52:59;;;;;;;;;;;12.50;72.40;;;;;;5189559;22;19907;-84
2023/10/17 11:55:00;;;;;;;;;;;12.50;72.30;;;;;;5163034;22;20256;-83
2023/10/17 11:57:12;;;;;;;;;;;12.60;72.00;;;;;;5164736;22;19907;-84
2023/10/17 11:59:33;;;;;;;;;;;12.50;71.70;;;;;;5161953;22;19953;-83
2023/10/17 12:01:53;;;;;;;;;;;12.50;71.70;;;;;;5202216;22;19919;-85
2023/10/17 12:04:17;;;;;;;;;;;12.50;71.10;;;;;;5211874;22;20143;-85
2023/10/17 12:06:40;;;;;;;;;;;12.50;71.20;;;;;;5193403;22;19935;-84
2023/10/17 12:09:17;;;;;;;;;;;12.50;71.20;;;;;;5213637;22;19904;-82
2023/10/17 12:11:38;;;;;;;;;;;12.50;71.10;;;;;;5196381;22;19906;-83
2023/10/17 12:13:58;;;;;;;;;;;12.50;71.30;;;;;;5186634;22;19961;-84
2023/10/17 12:16:25;;;;;;;;;;;12.60;71.30;;;;;;5210170;22;19984;-84
2023/10/17 12:18:46;;;;;;;;;;;12.50;71.30;;;;;;5197431;22;19957;-84
2023/10/17 12:20:49;;;;;;;;;;;12.50;71.40;;;;;;5196732;22;20049;-84
2023/10/17 12:22:50;;;;;;;;;;;12.50;71.40;;;;;;5168042;23;19906;-83
2023/10/17 12:24:50;;;;;;;;;;;12.50;71.30;;;;;;5168948;22;19911;-84
2023/10/17 12:26:55;;;;;;;;;;;12.50;71.20;;;;;;5171048;22;19957;-83
2023/10/17 12:29:16;;;;;;;;;;;12.50;70.90;;;;;;5197300;22;19907;-85
2023/10/17 12:31:17;;;;;;;;;;;12.60;71.00;;;;;;5191951;22;19970;-84
2023/10/17 12:33:40;;;;;;;;;;;12.60;71.00;;;;;;5192001;22;19904;-84
2023/10/17 12:36:05;;;;;;;;;;;12.50;71.10;;;;;;5193518;22;19911;-83
2023/10/17 12:38:33;;;;;;;;;;;12.60;71.10;;;;;;5194603;22;19913;-85
2023/10/17 12:40:54;;;;;;;;;;;12.60;71.20;;;;;;5169348;22;19919;-85
2023/10/17 12:43:16;;;;;;;;;;;12.60;71.00;;;;;;5165457;22;19911;-83
2023/10/17 12:45:37;;;;;;;;;;;12.60;71.00;;;;;;5191668;22;19934;-83
2023/10/17 12:47:38;;;;;;;;;;;12.60;71.00;;;;;;5192672;22;19938;-84
2023/10/17 12:49:39;;;;;;;;;;;12.60;71.80;;;;;;5194425;22;20045;-84
2023/10/17 12:51:43;;;;;;;;;;;12.70;71.20;;;;;;5195825;22;19907;-85
2023/10/17 12:53:44;;;;;;;;;;;12.60;71.10;;;;;;5169034;22;19908;-83
2023/10/17 12:55:51;;;;;;;;;;;12.70;71.20;;;;;;5143196;23;19912;-84
2023/10/17 12:57:51;;;;;;;;;;;12.70;71.00;;;;;;5143068;23;19986;-84
2023/10/17 12:59:52;;;;;;;;;;;12.70;70.90;;;;;;5197590;22;19922;-83
2023/10/17 13:01:53;;;;;;;;;;;12.80;70.90;;;;;;5196056;22;20130;-83
2023/10/17 13:03:57;;;;;;;;;;;12.70;70.90;;;;;;5190900;22;19947;-86
2023/10/17 13:06:17;;;;;;;;;;;12.80;70.90;;;;;;5194613;22;20521;-82
2023/10/17 13:08:40;;;;;;;;;;;12.80;71.00;;;;;;5191978;22;19931;-84
2023/10/17 13:11:04;;;;;;;;;;;12.80;71.00;;;;;;5193820;22;19935;-84
2023/10/17 13:13:25;;;;;;;;;;;13.00;71.10;;;;;;5189477;22;19949;-83
2023/10/17 13:15:27;;;;;;;;;;;13.00;71.00;;;;;;5165689;22;19911;-83
2023/10/17 13:17:28;;;;;;;;;;;13.10;71.10;;;;;;5139612;23;20732;-84
2023/10/17 13:19:51;;;;;;;;;;;13.00;70.80;;;;;;5191946;22;19942;-84
2023/10/17 13:22:16;;;;;;;;;;;13.10;70.50;;;;;;5195716;22;19910;-84
2023/10/17 13:24:36;;;;;;;;;;;13.10;70.40;;;;;;5193998;22;19911;-84
2023/10/17 13:26:57;;;;;;;;;;;13.20;70.50;;;;;;5193775;22;19918;-84
2023/10/17 13:29:18;;;;;;;;;;;13.20;70.50;;;;;;5170833;22;19908;-84
2023/10/17 13:31:38;;;;;;;;;;;13.20;70.00;;;;;;5194413;22;19961;-84
2023/10/17 13:33:59;;;;;;;;;;;13.30;70.00;;;;;;5193966;22;19928;-83
2023/10/17 13:36:20;;;;;;;;;;;13.30;69.80;;;;;;5193776;22;19907;-84
2023/10/17 13:38:40;;;;;;;;;;;13.20;69.60;;;;;;5194585;22;19918;-84
2023/10/17 13:40:41;;;;;;;;;;;13.30;69.10;;;;;;5193643;22;19970;-83
2023/10/17 13:42:41;;;;;;;;;;;13.30;69.10;;;;;;5192168;22;19903;-84
2023/10/17 13:44:43;;;;;;;;;;;13.30;68.90;;;;;;5191001;22;19904;-83
2023/10/17 13:46:44;;;;;;;;;;;13.20;68.90;;;;;;5140700;23;19987;-83
2023/10/17 13:48:50;;;;;;;;;;;13.30;68.60;;;;;;5191709;22;20114;-83
2023/10/17 13:51:04;;;;;;;;;;;13.30;68.60;;;;;;5167426;23;19926;-83
2023/10/17 13:53:07;;;;;;;;;;;13.10;68.60;;;;;;5195303;22;19904;-83
2023/10/17 13:55:09;;;;;;;;;;;13.20;68.60;;;;;;5166018;22;19930;-84
2023/10/17 13:57:15;;;;;;;;;;;13.20;68.80;;;;;;5165180;22;19920;-83
2023/10/17 13:59:17;;;;;;;;;;;13.20;69.00;;;;;;5169201;23;19907;-84
2023/10/17 14:01:47;;;;;;;;;;;13.20;69.00;;;;;;5193253;22;20019;-84
2023/10/17 14:04:10;;;;;;;;;;;13.20;68.30;;;;;;5195008;22;19907;-84
2023/10/17 14:06:34;;;;;;;;;;;13.20;67.90;;;;;;5194809;22;19941;-84
2023/10/17 14:09:01;;;;;;;;;;;13.20;67.90;;;;;;5195248;22;19915;-84
2023/10/17 14:11:17;;;;;;;;;;;13.10;67.90;;;;;;5168548;23;19912;-84
2023/10/17 14:13:38;;;;;;;;;;;13.10;67.80;;;;;;5193903;22;19907;-84
2023/10/17 14:15:59;;;;;;;;;;;13.00;67.70;;;;;;5196508;22;20406;-84
2023/10/17 14:18:29;;;;;;;;;;;13.00;67.80;;;;;;5193394;22;19904;-83
2023/10/17 14:21:16;;;;;;;;;;;13.00;67.50;;;;;;5195900;22;19910;-83
2023/10/17 14:23:57;;;;;;;;;;;13.00;67.70;;;;;;5173923;22;19911;-84
2023/10/17 14:26:18;;;;;;;;;;;12.90;67.60;;;;;;5174104;22;19908;-84
2023/10/17 14:28:18;;;;;;;;;;;13.00;67.80;;;;;;5195983;22;19959;-84
2023/10/17 14:30:19;;;;;;;;;;;12.90;67.80;;;;;;5169052;23;20427;-83
2023/10/17 14:32:21;;;;;;;;;;;12.90;67.80;;;;;;5189783;22;19957;-84
2023/10/17 14:34:21;;;;;;;;;;;12.80;67.60;;;;;;5195225;22;20266;-83
2023/10/17 14:36:22;;;;;;;;;;;12.80;67.60;;;;;;5193340;22;19907;-85
2023/10/17 14:38:25;;;;;;;;;;;12.80;67.40;;;;;;5166594;23;19911;-84
2023/10/17 14:40:30;;;;;;;;;;;12.80;67.40;;;;;;5195328;22;20355;-84
2023/10/17 14:42:30;;;;;;;;;;;12.80;67.50;;;;;;5197922;22;19919;-83
2023/10/17 14:44:31;;;;;;;;;;;12.80;67.50;;;;;;5195563;22;19913;-82
2023/10/17 14:46:32;;;;;;;;;;;12.70;67.40;;;;;;5197031;22;20002;-83
2023/10/17 14:48:32;;;;;;;;;;;12.70;67.50;;;;;;5168020;22;19951;-83
2023/10/17 14:50:53;;;;;;;;;;;12.70;67.50;;;;;;5189050;22;19958;-84
2023/10/17 14:53:18;;;;;;;;;;;12.80;67.60;;;;;;5199724;22;19907;-83
2023/10/17 14:55:39;;;;;;;;;;;12.70;67.60;;;;;;5190321;22;19974;-83